createdAt,value
2022-10-23T00:01:52.711Z,90.70
2022-10-23T00:04:22.406Z,90.70
2022-10-23T00:06:49.715Z,90.80
2022-10-23T00:09:20.651Z,91.00
2022-10-23T00:11:51.443Z,90.80
2022-10-23T00:14:25.231Z,90.80
2022-10-23T00:16:52.188Z,90.80
2022-10-23T00:19:23.272Z,90.80
2022-10-23T00:21:59.630Z,90.80
2022-10-23T00:24:29.873Z,90.80
2022-10-23T00:26:59.313Z,90.80
2022-10-23T00:29:28.307Z,90.80
2022-10-23T00:31:55.261Z,90.80
2022-10-23T00:34:25.060Z,90.80
2022-10-23T00:36:52.000Z,90.90
2022-10-23T00:39:18.956Z,91.10
2022-10-23T00:41:46.002Z,90.90
2022-10-23T00:44:18.936Z,90.90
2022-10-23T00:46:46.453Z,90.90
2022-10-23T00:49:13.642Z,90.90
2022-10-23T00:51:47.730Z,90.90
2022-10-23T00:54:30.164Z,90.90
2022-10-23T00:57:00.407Z,90.90
2022-10-23T00:59:27.562Z,90.90
2022-10-23T01:01:54.664Z,90.90
2022-10-23T01:04:21.982Z,90.90
2022-10-23T01:07:05.865Z,90.90
2022-10-23T01:09:40.100Z,91.00
2022-10-23T01:12:42.373Z,91.00
2022-10-23T01:15:12.533Z,91.00
2022-10-23T01:17:48.663Z,91.00
2022-10-23T01:20:30.852Z,91.00
2022-10-23T01:23:30.521Z,91.20
2022-10-23T01:26:16.349Z,91.20
2022-10-23T01:28:52.711Z,91.00
2022-10-23T01:31:40.336Z,91.00
2022-10-23T01:34:11.045Z,91.00
2022-10-23T01:36:38.292Z,91.00
2022-10-23T01:39:08.100Z,91.00
2022-10-23T01:41:38.334Z,91.00
2022-10-23T01:44:29.735Z,91.10
2022-10-23T01:46:56.779Z,91.10
2022-10-23T01:49:24.484Z,91.10
2022-10-23T01:51:59.792Z,91.10
2022-10-23T01:54:30.270Z,91.10
2022-10-23T01:56:57.367Z,91.10
2022-10-23T01:59:36.955Z,91.10
2022-10-23T02:02:04.261Z,91.10
2022-10-23T02:04:37.035Z,91.10
2022-10-23T02:07:04.011Z,91.10
2022-10-23T02:09:31.762Z,91.20
2022-10-23T02:12:02.926Z,91.20
2022-10-23T02:14:38.331Z,91.20
2022-10-23T02:17:18.452Z,91.20
2022-10-23T02:19:57.124Z,91.20
2022-10-23T02:22:33.315Z,91.40
2022-10-23T02:25:11.808Z,91.20
2022-10-23T02:27:47.364Z,91.20
2022-10-23T02:30:15.768Z,91.20
2022-10-23T02:32:46.170Z,91.20
2022-10-23T02:35:13.249Z,91.20
2022-10-23T02:37:42.854Z,91.20
2022-10-23T02:40:10.477Z,91.20
2022-10-23T02:42:45.387Z,91.30
2022-10-23T02:45:29.995Z,91.30
2022-10-23T02:47:59.763Z,91.30
2022-10-23T02:50:32.159Z,91.30
2022-10-23T02:53:14.209Z,91.30
2022-10-23T02:56:10.526Z,91.30
2022-10-23T02:59:04.992Z,91.30
2022-10-23T03:01:56.402Z,91.30
2022-10-23T03:04:26.486Z,91.30
2022-10-23T03:06:53.365Z,91.30
2022-10-23T03:09:20.414Z,91.30
2022-10-23T03:11:47.357Z,91.30
2022-10-23T03:14:14.776Z,91.30
2022-10-23T03:16:41.744Z,91.30
2022-10-23T03:19:08.790Z,91.30
2022-10-23T03:21:35.715Z,91.40
2022-10-23T03:24:02.688Z,91.40
2022-10-23T03:26:29.651Z,91.40
2022-10-23T03:28:56.746Z,91.40
2022-10-23T03:31:23.765Z,91.40
2022-10-23T03:33:50.744Z,91.40
2022-10-23T03:36:17.726Z,91.50
2022-10-23T03:38:44.676Z,91.50
2022-10-23T03:41:11.773Z,91.40
2022-10-23T03:43:38.771Z,91.50
2022-10-23T03:46:09.449Z,91.50
2022-10-23T03:48:39.562Z,91.50
2022-10-23T03:51:06.833Z,91.50
2022-10-23T03:53:34.022Z,91.50
2022-10-23T03:56:01.012Z,91.50
2022-10-23T03:58:27.961Z,91.50
2022-10-23T04:00:54.852Z,91.60
2022-10-23T04:03:21.818Z,91.60
2022-10-23T04:05:52.105Z,91.60
2022-10-23T04:08:21.892Z,91.60
2022-10-23T04:10:48.769Z,91.60
2022-10-23T04:13:15.830Z,91.60
2022-10-23T04:15:48.773Z,91.60
2022-10-23T04:18:15.811Z,91.80
2022-10-23T04:20:42.795Z,91.60
2022-10-23T04:23:09.762Z,91.60
2022-10-23T04:25:36.781Z,91.60
2022-10-23T04:28:03.796Z,91.60
2022-10-23T04:30:30.768Z,91.60
2022-10-23T04:32:57.798Z,91.60
2022-10-23T04:35:25.001Z,91.60
2022-10-23T04:37:51.932Z,91.60
2022-10-23T04:40:18.928Z,91.60
2022-10-23T04:42:45.941Z,91.60
2022-10-23T04:45:15.440Z,91.60
2022-10-23T04:47:42.424Z,91.60
2022-10-23T04:50:09.368Z,91.60
2022-10-23T04:52:36.323Z,91.60
2022-10-23T04:55:03.401Z,91.60
2022-10-23T04:57:30.357Z,91.50
2022-10-23T04:59:57.266Z,91.50
2022-10-23T05:02:24.772Z,91.50
2022-10-23T05:04:51.706Z,91.50
2022-10-23T05:07:18.715Z,91.50
2022-10-23T05:09:45.646Z,91.40
2022-10-23T05:12:12.795Z,91.40
2022-10-23T05:14:39.783Z,91.40
2022-10-23T05:17:19.379Z,91.40
2022-10-23T05:19:49.963Z,91.40
2022-10-23T05:22:17.176Z,91.30
2022-10-23T05:24:48.219Z,91.30
2022-10-23T05:27:17.421Z,91.30
2022-10-23T05:29:44.401Z,91.30
2022-10-23T05:32:11.812Z,91.30
2022-10-23T05:34:38.825Z,91.30
2022-10-23T05:37:06.718Z,91.20
2022-10-23T05:39:33.675Z,91.20
2022-10-23T05:42:03.029Z,91.20
2022-10-23T05:44:30.003Z,91.10
2022-10-23T05:46:56.970Z,91.10
2022-10-23T05:49:27.032Z,91.20
2022-10-23T05:51:53.939Z,91.00
2022-10-23T05:54:21.010Z,91.00
2022-10-23T05:56:47.949Z,90.90
2022-10-23T05:59:17.905Z,90.90
2022-10-23T06:01:47.708Z,90.90
2022-10-23T06:04:14.700Z,90.90
2022-10-23T06:06:41.664Z,90.80
2022-10-23T06:09:08.571Z,90.80
2022-10-23T06:11:35.540Z,90.80
2022-10-23T06:14:02.463Z,90.80
2022-10-23T06:16:29.518Z,90.80
2022-10-23T06:18:57.608Z,90.80
2022-10-23T06:21:27.691Z,90.80
2022-10-23T06:23:55.319Z,90.70
2022-10-23T06:26:22.244Z,90.70
2022-10-23T06:28:49.198Z,90.70
2022-10-23T06:31:16.431Z,90.60
2022-10-23T06:33:43.382Z,90.60
2022-10-23T06:36:13.092Z,90.60
2022-10-23T06:38:40.765Z,90.50
2022-10-23T06:41:13.362Z,90.60
2022-10-23T06:43:40.415Z,90.50
2022-10-23T06:46:07.628Z,90.50
2022-10-23T06:48:34.854Z,90.50
2022-10-23T06:51:05.803Z,90.50
2022-10-23T06:53:33.436Z,90.50
2022-10-23T06:56:01.054Z,90.60
2022-10-23T06:58:28.241Z,90.60
2022-10-23T07:00:55.467Z,90.70
2022-10-23T07:03:25.483Z,90.70
2022-10-23T07:05:53.631Z,90.80
2022-10-23T07:08:21.918Z,90.90
2022-10-23T07:10:49.041Z,90.90
2022-10-23T07:13:15.977Z,91.00
2022-10-23T07:15:42.904Z,91.00
2022-10-23T07:18:14.685Z,91.10
2022-10-23T07:20:42.066Z,91.10
2022-10-23T07:23:09.616Z,91.20
2022-10-23T07:25:36.589Z,91.20
2022-10-23T07:28:04.616Z,91.20
2022-10-23T07:30:31.857Z,91.20
2022-10-23T07:32:59.032Z,91.30
2022-10-23T07:35:25.982Z,91.30
2022-10-23T07:37:52.891Z,91.30
2022-10-23T07:40:19.994Z,91.30
2022-10-23T07:42:46.991Z,91.30
2022-10-23T07:45:14.026Z,91.30
2022-10-23T07:47:41.345Z,91.30
2022-10-23T07:50:09.657Z,91.40
2022-10-23T07:52:37.206Z,91.40
2022-10-23T07:55:07.228Z,91.40
2022-10-23T07:57:34.182Z,91.40
2022-10-23T08:00:01.135Z,91.40
2022-10-23T08:02:28.228Z,91.40
2022-10-23T08:04:55.237Z,91.40
2022-10-23T08:07:22.080Z,91.40
2022-10-23T08:09:49.154Z,91.40
2022-10-23T08:12:16.320Z,91.40
2022-10-23T08:14:45.548Z,91.40
2022-10-23T08:17:12.493Z,91.40
2022-10-23T08:19:39.600Z,91.40
2022-10-23T08:22:09.632Z,91.40
2022-10-23T08:24:36.576Z,91.40
2022-10-23T08:27:06.182Z,91.40
2022-10-23T08:29:33.301Z,91.40
2022-10-23T08:32:00.306Z,91.50
2022-10-23T08:34:37.408Z,91.50
2022-10-23T08:37:53.022Z,91.50
2022-10-23T08:40:47.747Z,91.50
2022-10-23T08:43:55.583Z,91.50
2022-10-23T08:47:35.330Z,91.50
2022-10-23T08:50:10.929Z,91.50
2022-10-23T08:59:46.491Z,91.50
2022-10-23T09:03:01.557Z,91.50
2022-10-23T09:10:21.560Z,91.60
2022-10-23T09:12:50.444Z,91.50
2022-10-23T09:15:55.375Z,91.50
2022-10-23T09:18:24.320Z,91.60
2022-10-23T09:21:01.399Z,91.60
2022-10-23T09:26:16.848Z,91.60
2022-10-23T09:31:50.075Z,91.70
2022-10-23T09:34:22.951Z,91.70
2022-10-23T09:36:52.314Z,91.60
2022-10-23T09:39:33.989Z,91.60
2022-10-23T09:42:02.858Z,91.60
2022-10-23T09:44:31.355Z,91.50
2022-10-23T09:47:11.479Z,91.60
2022-10-23T09:49:45.849Z,91.60
2022-10-23T09:52:13.227Z,91.60
2022-10-23T09:54:47.940Z,91.60
2022-10-23T09:57:33.904Z,91.60
2022-10-23T10:00:18.012Z,91.70
2022-10-23T10:03:06.137Z,91.60
2022-10-23T10:05:44.668Z,91.60
2022-10-23T10:08:20.698Z,91.60
2022-10-23T10:10:52.884Z,91.60
2022-10-23T10:13:25.826Z,91.60
2022-10-23T10:15:56.406Z,91.70
2022-10-23T10:19:14.604Z,91.70
2022-10-23T10:29:38.366Z,91.70
2022-10-23T10:48:43.160Z,91.70
2022-10-23T10:51:54.335Z,91.80
2022-10-23T10:54:29.984Z,91.70
2022-10-23T10:56:57.348Z,91.80
2022-10-23T10:59:28.853Z,91.70
2022-10-23T11:02:50.025Z,91.70
2022-10-23T11:06:28.422Z,91.70
2022-10-23T11:12:27.467Z,91.50
2022-10-23T11:14:59.155Z,91.50
2022-10-23T11:17:27.963Z,91.50
2022-10-23T11:20:03.713Z,91.50
2022-10-23T11:23:09.085Z,91.40
2022-10-23T11:25:57.841Z,91.40
2022-10-23T11:28:52.700Z,91.40
2022-10-23T11:31:29.709Z,91.60
2022-10-23T11:34:27.272Z,91.30
2022-10-23T11:36:55.229Z,91.30
2022-10-23T11:39:32.966Z,91.30
2022-10-23T11:42:23.162Z,91.30
2022-10-23T11:44:50.653Z,91.30
2022-10-23T11:47:29.413Z,91.30
2022-10-23T11:50:08.447Z,91.30
2022-10-23T11:52:45.486Z,91.20
2022-10-23T11:55:24.985Z,91.20
2022-10-23T11:58:13.677Z,91.00
2022-10-23T12:00:50.199Z,91.00
2022-10-23T12:03:23.138Z,90.90
2022-10-23T12:05:57.717Z,90.90
2022-10-23T12:08:27.084Z,90.90
2022-10-23T12:10:58.459Z,90.80
2022-10-23T12:13:37.879Z,90.80
2022-10-23T12:16:07.591Z,90.90
2022-10-23T12:18:45.906Z,90.90
2022-10-23T12:21:29.908Z,90.90
2022-10-23T12:24:15.533Z,90.80
2022-10-23T12:27:20.827Z,90.80
2022-10-23T12:30:23.307Z,90.70
2022-10-23T12:33:12.892Z,90.60
2022-10-23T12:35:55.639Z,90.50
2022-10-23T12:38:34.016Z,90.40
2022-10-23T12:41:17.208Z,90.40
2022-10-23T12:43:51.101Z,90.30
2022-10-23T12:56:57.622Z,90.40
2022-10-23T13:03:17.112Z,90.30
2022-10-23T13:05:45.280Z,90.30
2022-10-23T13:08:18.959Z,90.30
2022-10-23T13:10:46.358Z,90.20
2022-10-23T13:14:26.988Z,90.10
2022-10-23T13:17:20.617Z,90.00
2022-10-23T13:19:50.492Z,89.80
2022-10-23T13:22:27.688Z,89.70
2022-10-23T13:25:21.945Z,89.60
2022-10-23T13:28:27.046Z,89.40
2022-10-23T13:42:32.166Z,89.60
2022-10-23T13:45:01.955Z,88.90
2022-10-23T13:51:37.636Z,88.90
2022-10-23T14:10:30.149Z,88.80
2022-10-23T14:12:59.601Z,88.70
2022-10-23T14:15:44.441Z,88.50
2022-10-23T14:18:57.580Z,88.40
2022-10-23T14:22:07.010Z,88.40
2022-10-23T14:28:11.992Z,88.40
2022-10-23T14:31:35.168Z,88.40
2022-10-23T14:34:02.223Z,88.40
2022-10-23T14:36:49.260Z,88.30
2022-10-23T15:13:00.596Z,88.50
2022-10-23T15:15:42.092Z,88.60
2022-10-23T15:18:24.866Z,88.70
2022-10-23T15:21:20.319Z,88.60
2022-10-23T15:23:59.381Z,88.70
2022-10-23T15:26:31.549Z,88.70
2022-10-23T15:29:10.392Z,88.70
2022-10-23T15:31:51.877Z,88.70
2022-10-23T15:35:09.424Z,88.80
2022-10-23T15:38:04.018Z,88.80
2022-10-23T15:40:54.497Z,88.80
2022-10-23T15:44:01.004Z,88.90
2022-10-23T15:50:40.525Z,89.00
2022-10-23T15:53:05.792Z,89.10
2022-10-23T15:55:34.243Z,89.10
2022-10-23T16:06:01.613Z,89.20
2022-10-23T16:35:16.495Z,90.90
2022-10-23T16:37:48.975Z,90.90
2022-10-23T16:40:16.228Z,91.00
2022-10-23T17:26:24.377Z,91.20
2022-10-23T17:28:51.466Z,91.20
2022-10-23T17:31:23.292Z,91.30
2022-10-23T17:33:54.322Z,91.30
2022-10-23T17:36:35.080Z,91.30
2022-10-23T17:39:17.464Z,91.30
2022-10-23T17:49:49.714Z,91.40
2022-10-23T17:52:37.386Z,91.40
2022-10-23T17:56:03.327Z,91.40
2022-10-23T18:05:05.304Z,91.40
2022-10-23T18:11:20.986Z,91.50
2022-10-23T18:20:28.833Z,91.40
2022-10-23T18:22:14.736Z,91.40
2022-10-23T18:27:44.244Z,91.40
2022-10-23T18:30:16.602Z,91.40
2022-10-23T18:36:00.596Z,91.40
2022-10-23T18:39:19.232Z,91.40
2022-10-23T18:42:19.390Z,91.40
2022-10-23T18:44:56.641Z,91.40
2022-10-23T18:54:10.792Z,91.40
2022-10-23T18:56:40.399Z,91.40
2022-10-23T18:59:34.427Z,91.40
2022-10-23T19:02:24.206Z,91.40
2022-10-23T19:04:51.363Z,91.40
2022-10-23T19:07:18.427Z,91.40
2022-10-23T19:09:47.760Z,91.40
2022-10-23T19:12:14.884Z,91.40
2022-10-23T19:15:48.829Z,91.40
2022-10-23T19:18:40.082Z,91.70
2022-10-23T19:21:31.819Z,91.40
2022-10-23T19:24:10.069Z,91.40
2022-10-23T19:34:51.695Z,91.50
2022-10-23T19:37:18.928Z,91.50
2022-10-23T19:39:46.049Z,91.50
2022-10-23T19:42:13.303Z,91.50
2022-10-23T19:44:49.355Z,91.80
2022-10-23T19:47:19.781Z,91.60
2022-10-23T19:49:51.838Z,91.60
2022-10-23T19:52:32.426Z,91.70
2022-10-23T19:55:36.469Z,91.70
2022-10-23T19:58:49.276Z,91.70
2022-10-23T20:02:32.295Z,91.70
2022-10-23T21:22:10.393Z,91.90
2022-10-23T21:28:08.914Z,92.90
2022-10-23T21:31:07.523Z,92.70
2022-10-23T21:33:37.306Z,92.60
2022-10-23T21:36:19.333Z,92.50
2022-10-23T21:39:38.796Z,92.40
2022-10-23T21:48:14.385Z,92.20
2022-10-23T21:50:51.765Z,92.20
2022-10-23T21:53:44.146Z,92.20
2022-10-23T21:56:29.768Z,92.30
2022-10-23T22:01:36.801Z,92.30
2022-10-23T22:05:02.734Z,92.30
2022-10-23T22:07:29.948Z,92.30
2022-10-23T22:10:01.189Z,92.30
2022-10-23T22:12:32.342Z,92.20
2022-10-23T22:15:26.761Z,92.30
2022-10-23T22:18:16.737Z,92.30
2022-10-23T22:20:52.885Z,92.20
2022-10-23T22:23:26.038Z,92.20
2022-10-23T22:25:58.714Z,92.20
2022-10-23T22:28:30.932Z,92.50
2022-10-23T22:31:04.267Z,92.30
2022-10-23T22:34:24.971Z,92.30
2022-10-23T22:41:05.292Z,92.30
2022-10-23T22:43:35.099Z,92.20
2022-10-23T22:50:10.289Z,92.20
2022-10-23T22:56:54.842Z,92.20
2022-10-23T22:59:22.134Z,92.20
2022-10-23T23:01:52.176Z,92.20
2022-10-23T23:07:12.225Z,92.20
2022-10-23T23:09:41.067Z,92.20
2022-10-23T23:12:57.425Z,92.20
2022-10-23T23:15:12.082Z,92.20
2022-10-23T23:21:31.522Z,92.20
2022-10-23T23:24:01.403Z,92.20
2022-10-23T23:26:32.374Z,92.20
2022-10-23T23:29:01.488Z,92.30
2022-10-23T23:31:28.579Z,92.20
2022-10-23T23:33:55.670Z,92.30
2022-10-23T23:36:35.019Z,92.20
2022-10-23T23:39:18.345Z,92.20
2022-10-23T23:42:12.954Z,92.30
2022-10-23T23:47:40.048Z,92.30
2022-10-23T23:50:28.384Z,92.30
2022-10-23T23:52:57.852Z,92.30
2022-10-23T23:55:27.927Z,92.30
2022-10-23T23:57:58.658Z,92.30
